National Weather Service Raw Text Product

Displaying AFOS PIL: TAFALO Received: 2018-01-12 07:21 UTC


005 
FTUS43 KDMX 120721 AAC
TAFALO
TAF AMD
KALO 120721Z 1207/1306 33018G26KT 6SM BLSN BKN012
     FM120900 33014KT P6SM SKC
     FM130300 35009KT P6SM BKN090=